Time;durP1;ratioP1;P1;durP2;ratioP2;P2;SDS_P1;SDS_P2;PMS_P1;PMS_P2;Temp;Humidity;BMP_temperature;BMP_pressure;BME280_temperature;BME280_humidity;BME280_pressure;Samples;Min_cycle;Max_cycle;Signal;HPM_P1;HPM_P2
2021/10/03 00:00:48;;;;;;;;;4.00;4.00;;;;;18.13;73.66;99523.22;5046861;28;45430;-92
2021/10/03 00:03:17;;;;;;;;;2.50;1.50;;;;;18.10;73.45;99518.16;5043083;28;45832;-84
2021/10/03 00:05:45;;;;;;;;;4.00;2.00;;;;;18.07;72.90;99507.81;5036187;28;46423;-83
2021/10/03 00:08:11;;;;;;;;;2.00;2.00;;;;;18.09;73.08;99505.84;5046266;28;45630;-82
2021/10/03 00:10:36;;;;;;;;;2.00;2.00;;;;;18.10;72.89;99504.88;5052172;28;45776;-81
2021/10/03 00:13:05;;;;;;;;;3.00;3.00;;;;;18.15;73.63;99500.00;5044026;28;45330;-78
2021/10/03 00:15:33;;;;;;;;;1.50;1.50;;;;;18.11;73.77;99494.13;5054277;28;45494;-80
2021/10/03 00:17:59;;;;;;;;;3.25;3.25;;;;;18.14;73.05;99501.00;5046372;28;45390;-78
2021/10/03 00:20:25;;;;;;;;;2.00;2.00;;;;;18.10;73.22;99488.91;5058735;28;45358;-80
2021/10/03 00:22:50;;;;;;;;;2.50;2.50;;;;;18.11;73.36;99495.94;5044499;28;45429;-80
2021/10/03 00:25:16;;;;;;;;;4.00;2.00;;;;;18.11;73.47;99485.28;5043654;28;45293;-80
2021/10/03 00:27:42;;;;;;;;;3.25;2.50;;;;;18.11;73.21;99482.63;5025339;28;45496;-80
2021/10/03 00:30:09;;;;;;;;;3.75;3.00;;;;;18.10;73.79;99475.63;5058751;28;45308;-80
2021/10/03 00:32:34;;;;;;;;;1.75;1.75;;;;;18.13;73.37;99479.84;5035344;28;47713;-80
2021/10/03 00:35:00;;;;;;;;;3.25;3.25;;;;;18.15;73.56;99483.22;5058563;28;45450;-84
2021/10/03 00:37:25;;;;;;;;;3.00;3.00;;;;;18.10;73.75;99459.66;5039415;28;45268;-84
2021/10/03 00:39:51;;;;;;;;;4.00;4.00;;;;;18.16;73.02;99472.44;5039406;28;45594;-83
2021/10/03 00:42:16;;;;;;;;;4.00;4.00;;;;;18.14;73.26;99470.91;5033234;28;46483;-82
2021/10/03 00:44:42;;;;;;;;;4.25;3.00;;;;;18.14;73.49;99461.09;5047864;28;46122;-82
2021/10/03 00:47:08;;;;;;;;;3.00;2.00;;;;;18.16;73.19;99453.84;5057289;28;45216;-82
2021/10/03 00:49:36;;;;;;;;;3.75;3.75;;;;;18.11;73.71;99448.06;5046932;28;45379;-82
2021/10/03 00:52:03;;;;;;;;;3.75;3.75;;;;;18.15;73.24;99464.63;5034776;28;45413;-82
2021/10/03 00:54:29;;;;;;;;;5.00;3.00;;;;;18.11;73.43;99448.06;5047641;28;45542;-82
2021/10/03 00:56:54;;;;;;;;;2.75;2.75;;;;;18.14;73.33;99450.47;5057557;28;45283;-82
2021/10/03 00:59:20;;;;;;;;;3.50;2.00;;;;;18.11;73.18;99456.03;5025583;28;45522;-82
2021/10/03 01:01:45;;;;;;;;;3.00;3.00;;;;;18.13;73.53;99445.25;5045992;28;45590;-83
2021/10/03 01:04:11;;;;;;;;;3.00;3.00;;;;;18.12;73.12;99447.09;5050403;28;45961;-83
2021/10/03 01:06:37;;;;;;;;;4.25;4.25;;;;;18.17;73.59;99447.56;5049432;28;45304;-85
2021/10/03 01:09:03;;;;;;;;;3.00;3.00;;;;;18.18;72.81;99449.22;5062838;28;45199;-85
2021/10/03 01:11:28;;;;;;;;;4.00;3.00;;;;;18.14;73.24;99445.16;5054696;28;45417;-83
2021/10/03 01:13:54;;;;;;;;;5.00;4.00;;;;;18.13;72.98;99437.28;5054458;28;46107;-81
2021/10/03 01:16:20;;;;;;;;;4.25;3.25;;;;;18.11;72.98;99421.47;5055841;28;45405;-80
2021/10/03 01:18:46;;;;;;;;;5.75;5.75;;;;;18.12;73.97;99423.19;5062646;28;45331;-82
2021/10/03 01:21:11;;;;;;;;;3.25;2.00;;;;;18.13;73.29;99424.00;5055472;28;45775;-81
2021/10/03 01:23:37;;;;;;;;;4.25;4.25;;;;;18.14;72.96;99409.75;5049665;28;45355;-82
2021/10/03 01:26:03;;;;;;;;;3.25;3.25;;;;;18.15;73.05;99414.91;5033658;28;45475;-81
2021/10/03 01:28:28;;;;;;;;;4.00;4.00;;;;;18.15;73.31;99412.25;5047998;28;45529;-81
2021/10/03 01:30:55;;;;;;;;;4.25;4.00;;;;;18.12;73.69;99399.25;5059357;28;45240;-81
2021/10/03 01:33:26;;;;;;;;;4.00;4.00;;;;;18.12;73.88;99399.25;5042858;28;45219;-81
2021/10/03 01:35:52;;;;;;;;;4.00;4.00;;;;;18.15;73.30;99398.97;5045289;28;45328;-81
2021/10/03 01:38:18;;;;;;;;;6.00;4.50;;;;;18.11;73.40;99392.22;5060122;28;45385;-80
2021/10/03 01:40:46;;;;;;;;;3.50;3.50;;;;;18.09;73.75;99389.72;5052469;28;47000;-84
2021/10/03 01:43:13;;;;;;;;;4.25;4.25;;;;;18.12;73.93;99380.63;5048359;28;46470;-83
2021/10/03 01:45:38;;;;;;;;;3.75;3.75;;;;;18.13;73.08;99382.31;5051336;28;45351;-82
2021/10/03 01:48:12;;;;;;;;;6.75;6.00;;;;;18.18;73.25;99395.19;5043404;28;45584;-82
2021/10/03 01:51:06;;;;;;;;;6.00;5.00;;;;;18.11;73.52;99373.63;5061698;28;45351;-82
2021/10/03 01:53:37;;;;;;;;;4.00;4.00;;;;;18.13;73.53;99373.47;5046283;28;46012;-82
2021/10/03 01:56:05;;;;;;;;;3.50;3.00;;;;;18.17;73.56;99370.44;5048837;28;46748;-80
2021/10/03 01:58:34;;;;;;;;;5.00;5.00;;;;;18.17;73.16;99365.13;5052965;28;45504;-81
2021/10/03 02:01:10;;;;;;;;;4.00;4.00;;;;;18.16;73.49;99367.91;5044943;28;47250;-80
2021/10/03 02:03:35;;;;;;;;;5.75;5.75;;;;;18.15;73.13;99356.41;5056502;28;45394;-81
2021/10/03 02:06:01;;;;;;;;;5.00;5.00;;;;;18.15;73.41;99351.09;5051953;28;45437;-81
2021/10/03 02:08:26;;;;;;;;;6.00;6.00;;;;;18.15;73.27;99351.09;5058132;28;45302;-80
2021/10/03 02:10:52;;;;;;;;;5.00;5.00;;;;;18.18;73.91;99342.00;5052864;28;45257;-79
2021/10/03 02:13:20;;;;;;;;;6.75;5.00;;;;;18.15;73.52;99334.34;5053505;28;45418;-79
2021/10/03 02:15:48;;;;;;;;;6.00;3.75;;;;;18.14;73.23;99328.16;5060691;28;45534;-81
2021/10/03 02:18:15;;;;;;;;;6.50;5.25;;;;;18.09;73.37;99331.22;5042523;28;45421;-81
2021/10/03 02:20:42;;;;;;;;;8.00;6.00;;;;;18.11;73.92;99331.09;5060502;28;45473;-80
2021/10/03 02:23:11;;;;;;;;;5.00;5.00;;;;;18.10;73.45;99316.94;5059121;28;46734;-81
2021/10/03 02:25:47;;;;;;;;;4.75;4.75;;;;;18.10;73.41;99305.47;5041789;28;45608;-81
2021/10/03 02:28:16;;;;;;;;;5.75;5.75;;;;;18.09;73.50;99306.47;5053719;28;45339;-83
2021/10/03 02:30:43;;;;;;;;;6.00;6.00;;;;;18.08;73.11;99307.41;5061022;28;45656;-83
2021/10/03 02:33:09;;;;;;;;;4.75;4.00;;;;;18.09;73.56;99290.50;5060305;28;45568;-83
2021/10/03 02:35:38;;;;;;;;;4.50;4.50;;;;;18.07;73.48;99289.81;5060857;28;45344;-83
2021/10/03 02:38:07;;;;;;;;;5.00;4.25;;;;;18.07;73.58;99293.31;5040431;28;45477;-83
2021/10/03 02:40:33;;;;;;;;;4.00;4.00;;;;;18.11;73.75;99304.50;5061009;28;45410;-86
2021/10/03 02:43:05;;;;;;;;;5.00;4.00;;;;;18.11;73.19;99291.22;5058815;28;46254;-83
2021/10/03 02:45:31;;;;;;;;;5.00;5.00;;;;;18.06;73.51;99288.97;5056826;28;45355;-86
2021/10/03 02:47:57;;;;;;;;;6.00;6.00;;;;;18.07;73.20;99284.50;5050131;28;45361;-87
2021/10/03 02:50:22;;;;;;;;;4.00;3.00;;;;;18.06;73.12;99290.75;5060876;28;45420;-86
2021/10/03 02:52:48;;;;;;;;;7.00;7.00;;;;;18.07;73.43;99284.50;5045654;28;45442;-83
2021/10/03 02:55:13;;;;;;;;;4.75;4.25;;;;;18.07;73.53;99268.53;5051947;28;45565;-83
2021/10/03 02:57:38;;;;;;;;;4.25;4.25;;;;;18.07;73.84;99274.69;5044859;28;45758;-83
2021/10/03 03:00:07;;;;;;;;;5.50;4.00;;;;;18.07;73.03;99266.72;5060822;28;45206;-83
2021/10/03 03:02:33;;;;;;;;;5.50;4.50;;;;;18.08;73.06;99255.09;5047004;28;46906;-82
2021/10/03 03:04:58;;;;;;;;;5.50;4.50;;;;;18.07;73.64;99260.56;5059007;28;45271;-83
2021/10/03 03:07:24;;;;;;;;;6.75;5.00;;;;;18.08;73.17;99268.38;5048307;28;45382;-83
2021/10/03 03:09:49;;;;;;;;;5.00;5.00;;;;;18.08;72.95;99268.38;5054038;28;45424;-83
2021/10/03 03:12:14;;;;;;;;;6.25;5.75;;;;;18.06;73.07;99257.06;5042480;28;46192;-85
2021/10/03 03:14:40;;;;;;;;;3.25;3.25;;;;;18.04;73.39;99247.53;5054714;28;45489;-85
2021/10/03 03:17:18;;;;;;;;;6.00;5.50;;;;;18.07;73.62;99255.25;5031007;28;46186;-85
2021/10/03 03:19:43;;;;;;;;;5.25;5.25;;;;;18.03;73.54;99243.19;5026023;28;45978;-85
2021/10/03 03:22:13;;;;;;;;;8.25;6.75;;;;;18.03;73.61;99243.19;5051207;28;46651;-85
2021/10/03 03:24:39;;;;;;;;;6.50;6.50;;;;;18.03;73.84;99237.88;5047671;28;45737;-87
2021/10/03 03:27:05;;;;;;;;;8.50;6.75;;;;;18.01;73.54;99227.38;5056235;28;45495;-87
2021/10/03 03:29:32;;;;;;;;;7.50;5.00;;;;;17.99;73.70;99224.88;5057802;28;45390;-85
2021/10/03 03:31:58;;;;;;;;;7.00;5.75;;;;;17.99;73.86;99224.88;5057314;28;46661;-87
2021/10/03 03:34:24;;;;;;;;;9.25;6.50;;;;;17.99;73.56;99219.56;5060389;28;45430;-87
2021/10/03 03:36:49;;;;;;;;;5.00;5.00;;;;;17.98;73.54;99215.19;5052898;28;45280;-87
2021/10/03 03:39:14;;;;;;;;;5.75;5.75;;;;;18.00;73.10;99212.44;5052706;28;45466;-87
2021/10/03 03:41:40;;;;;;;;;6.75;6.75;;;;;18.01;73.41;99216.75;5058720;28;45448;-89
2021/10/03 03:44:05;;;;;;;;;7.00;6.25;;;;;18.00;72.74;99210.59;5060045;28;45197;-90
2021/10/03 03:46:31;;;;;;;;;6.00;6.00;;;;;17.98;73.60;99211.69;5059681;28;45310;-88
2021/10/03 03:48:56;;;;;;;;;7.00;6.50;;;;;17.98;73.34;99209.88;5059352;28;45504;-87
2021/10/03 03:51:21;;;;;;;;;5.00;5.00;;;;;18.01;73.17;99211.44;5059034;28;45454;-90
2021/10/03 03:53:47;;;;;;;;;5.00;5.00;;;;;18.02;73.40;99204.31;5056284;28;45236;-83
2021/10/03 03:56:12;;;;;;;;;5.75;5.75;;;;;18.04;73.04;99212.97;5048054;28;45481;-83
2021/10/03 03:58:38;;;;;;;;;8.00;6.50;;;;;17.97;72.98;99210.88;5053312;28;46092;-82
2021/10/03 04:01:03;;;;;;;;;8.75;5.00;;;;;17.97;73.78;99204.72;5054736;28;46899;-82
2021/10/03 04:03:28;;;;;;;;;5.00;5.00;;;;;17.98;72.89;99204.56;5056837;28;45264;-83
2021/10/03 04:05:54;;;;;;;;;6.75;5.00;;;;;17.99;73.27;99208.91;5059637;28;45417;-83
2021/10/03 04:08:21;;;;;;;;;5.50;5.00;;;;;17.99;73.02;99206.25;5043027;28;45492;-84
2021/10/03 04:10:47;;;;;;;;;7.25;7.25;;;;;18.06;73.05;99216.34;5042486;28;46169;-81
2021/10/03 04:13:13;;;;;;;;;8.25;8.25;;;;;18.02;73.73;99205.16;5053885;28;45307;-82
2021/10/03 04:15:38;;;;;;;;;6.50;5.00;;;;;18.05;73.22;99206.69;5059402;28;45346;-82
2021/10/03 04:18:03;;;;;;;;;6.50;6.25;;;;;18.02;73.27;99206.97;5057446;28;45615;-87
2021/10/03 04:20:29;;;;;;;;;7.00;7.00;;;;;18.00;72.94;99210.59;5059690;28;45208;-90
2021/10/03 04:22:54;;;;;;;;;6.50;5.25;;;;;18.03;72.89;99221.91;5046304;28;45618;-85
2021/10/03 04:25:20;;;;;;;;;7.00;6.00;;;;;18.02;73.16;99212.28;5057369;28;45222;-85
2021/10/03 04:27:45;;;;;;;;;5.50;3.50;;;;;18.04;73.39;99224.47;5046164;28;45619;-81
2021/10/03 04:30:10;;;;;;;;;3.00;2.75;;;;;18.04;72.82;99220.94;5059223;28;46260;-86
2021/10/03 04:32:36;;;;;;;;;6.75;6.25;;;;;18.07;72.74;99226.00;5054923;28;45386;-87
2021/10/03 04:35:02;;;;;;;;;7.25;7.00;;;;;18.06;73.45;99225.16;5059110;28;45223;-86
2021/10/03 04:37:28;;;;;;;;;8.75;6.75;;;;;18.05;72.68;99223.47;5046974;28;45619;-87
2021/10/03 04:39:53;;;;;;;;;7.25;7.25;;;;;18.04;73.03;99227.13;5056794;28;45559;-86
2021/10/03 04:42:20;;;;;;;;;7.25;6.50;;;;;18.00;73.01;99221.22;5047849;28;45464;-87
2021/10/03 04:44:46;;;;;;;;;7.50;7.50;;;;;17.97;73.14;99220.66;5056220;28;45354;-87
2021/10/03 04:47:11;;;;;;;;;6.50;6.25;;;;;17.97;73.17;99220.66;5034679;28;46166;-84
2021/10/03 04:49:37;;;;;;;;;6.00;6.00;;;;;17.98;72.55;99217.84;5058044;28;45489;-86
2021/10/03 04:52:02;;;;;;;;;5.75;5.75;;;;;17.98;72.87;99217.84;5053833;28;45518;-86
2021/10/03 04:54:28;;;;;;;;;7.50;7.50;;;;;17.97;72.81;99205.56;5047419;28;45285;-86
2021/10/03 04:56:53;;;;;;;;;6.00;5.25;;;;;17.96;72.69;99211.84;5051467;28;45410;-85
2021/10/03 04:59:18;;;;;;;;;9.75;8.75;;;;;17.97;73.40;99210.88;5043460;28;48490;-85
2021/10/03 05:01:45;;;;;;;;;7.00;6.25;;;;;17.99;73.04;99219.56;5058361;28;45366;-87
2021/10/03 05:04:10;;;;;;;;;4.75;4.75;;;;;17.97;72.96;99223.31;5045602;28;45292;-87
2021/10/03 05:06:36;;;;;;;;;9.00;8.00;;;;;17.98;73.20;99212.53;5062583;28;45488;-87
2021/10/03 05:09:02;;;;;;;;;7.25;6.50;;;;;17.96;73.42;99203.88;5052789;28;45469;-87
2021/10/03 05:11:27;;;;;;;;;6.00;6.00;;;;;17.96;73.90;99203.88;5055809;28;45208;-87
2021/10/03 05:13:52;;;;;;;;;5.75;5.75;;;;;17.97;72.96;99202.06;5044825;28;45777;-84
2021/10/03 05:16:18;;;;;;;;;10.25;7.00;;;;;17.98;73.32;99193.09;5042380;28;45208;-86
2021/10/03 05:18:43;;;;;;;;;5.75;5.75;;;;;18.02;73.27;99191.00;5042206;28;47191;-85
2021/10/03 05:21:08;;;;;;;;;5.00;5.00;;;;;18.06;73.88;99203.03;5059242;28;45552;-82
2021/10/03 05:23:34;;;;;;;;;4.75;4.75;;;;;18.00;73.24;99199.94;5047230;28;45531;-80
2021/10/03 05:26:00;;;;;;;;;6.50;6.50;;;;;18.02;72.93;99201.66;5058685;28;47244;-81
2021/10/03 05:28:25;;;;;;;;;7.50;6.25;;;;;18.00;73.24;99191.97;5055769;28;45399;-81
2021/10/03 05:30:51;;;;;;;;;7.25;6.25;;;;;18.05;73.00;99209.34;5061617;28;45343;-84
2021/10/03 05:33:16;;;;;;;;;7.75;7.75;;;;;18.05;73.35;99217.31;5044010;28;47201;-85
2021/10/03 05:35:42;;;;;;;;;6.50;6.50;;;;;18.06;73.85;99229.63;5061023;28;45490;-84
2021/10/03 05:38:07;;;;;;;;;7.00;6.50;;;;;18.08;74.89;99232.97;5056610;28;46099;-84
2021/10/03 05:40:33;;;;;;;;;8.25;7.00;;;;;18.10;74.65;99252.28;5061957;28;45429;-82
2021/10/03 05:42:59;;;;;;;;;7.75;7.75;;;;;18.07;74.32;99223.34;5048017;28;45311;-82
2021/10/03 05:45:25;;;;;;;;;7.25;7.25;;;;;18.07;76.03;99247.28;5059464;28;45517;-81
2021/10/03 05:47:50;;;;;;;;;9.50;9.50;;;;;18.02;76.31;99258.31;5053222;28;45497;-80
2021/10/03 05:50:16;;;;;;;;;9.50;7.75;;;;;17.98;75.93;99286.13;5061974;28;45224;-80
2021/10/03 05:52:41;;;;;;;;;6.50;6.50;;;;;17.99;75.41;99301.09;5059940;28;45158;-80
2021/10/03 05:55:07;;;;;;;;;5.50;5.50;;;;;17.94;76.48;99298.00;5051111;28;45232;-80
2021/10/03 05:57:33;;;;;;;;;4.25;4.25;;;;;17.86;77.67;99274.75;5054709;28;45381;-80
2021/10/03 05:59:59;;;;;;;;;5.00;4.75;;;;;17.73;77.37;99306.88;5047910;28;45285;-79
2021/10/03 06:02:24;;;;;;;;;5.00;5.00;;;;;17.62;77.39;99332.56;5050065;28;45333;-78
2021/10/03 06:04:49;;;;;;;;;3.75;2.00;;;;;17.43;77.11;99347.38;5059753;28;45504;-82
2021/10/03 06:07:15;;;;;;;;;0.50;0.50;;;;;17.22;77.69;99350.03;5045710;28;46231;-89
2021/10/03 06:09:40;;;;;;;;;1.00;0.25;;;;;16.94;78.73;99354.97;5058369;28;45453;-87
2021/10/03 06:12:06;;;;;;;;;0.00;0.00;;;;;16.66;78.52;99389.91;5046939;28;45486;-88
2021/10/03 06:14:31;;;;;;;;;0.00;0.00;;;;;16.50;79.13;99369.06;5036051;28;45407;-77
2021/10/03 06:16:57;;;;;;;;;0.00;0.00;;;;;16.34;78.90;99361.50;5040078;28;45389;-76
2021/10/03 06:19:22;;;;;;;;;0.00;0.00;;;;;16.28;79.26;99376.94;5040249;28;45378;-74
2021/10/03 06:21:48;;;;;;;;;0.00;0.00;;;;;16.18;79.15;99370.66;5027834;28;45462;-75
2021/10/03 06:24:13;;;;;;;;;1.00;0.00;;;;;16.14;79.85;99377.19;5039008;28;45347;-75
2021/10/03 06:26:39;;;;;;;;;1.00;0.00;;;;;16.16;79.30;99386.69;5038654;28;48572;-77
2021/10/03 06:29:04;;;;;;;;;0.00;0.00;;;;;16.16;79.97;99384.03;5031919;28;45501;-77
2021/10/03 06:31:30;;;;;;;;;0.00;0.00;;;;;16.19;79.64;99381.16;5013856;28;45459;-76
2021/10/03 06:33:56;;;;;;;;;0.00;0.00;;;;;16.15;79.71;99377.03;5032170;28;45653;-76
2021/10/03 06:36:21;;;;;;;;;0.00;0.00;;;;;16.15;79.74;99377.03;5030847;28;46351;-76
2021/10/03 06:38:47;;;;;;;;;0.00;0.00;;;;;16.19;79.70;99386.47;5032342;28;45677;-75
2021/10/03 06:41:13;;;;;;;;;0.75;0.75;;;;;16.18;79.91;99390.06;5030387;28;45886;-76
2021/10/03 06:43:41;;;;;;;;;0.00;0.00;;;;;16.26;79.74;99389.47;5031606;28;45632;-76
2021/10/03 06:46:07;;;;;;;;;0.00;0.00;;;;;16.30;79.77;99379.44;5013339;28;47143;-76
2021/10/03 06:48:33;;;;;;;;;0.75;0.75;;;;;16.30;80.14;99401.50;5036788;28;45521;-76
2021/10/03 06:50:59;;;;;;;;;0.00;0.00;;;;;16.35;80.06;99390.53;5040423;28;45312;-76
2021/10/03 06:53:25;;;;;;;;;2.00;1.00;;;;;16.33;79.75;99360.66;5026106;28;45639;-75
2021/10/03 06:55:50;;;;;;;;;1.00;0.00;;;;;16.35;79.95;99357.88;5036832;28;46829;-76
2021/10/03 06:58:16;;;;;;;;;1.00;1.00;;;;;16.42;79.77;99333.41;5028632;28;45340;-76
2021/10/03 07:00:41;;;;;;;;;1.00;0.00;;;;;16.47;79.59;99324.25;5031108;28;45356;-76
2021/10/03 07:03:06;;;;;;;;;0.00;0.00;;;;;16.52;79.67;99356.50;5030670;28;45960;-75
2021/10/03 07:05:32;;;;;;;;;2.00;0.00;;;;;16.50;79.22;99372.56;5032546;28;46260;-76
2021/10/03 07:07:57;;;;;;;;;2.00;2.00;;;;;16.57;79.97;99395.94;5040394;28;45283;-76
2021/10/03 07:10:23;;;;;;;;;1.00;1.00;;;;;16.60;79.72;99409.81;5036939;28;45360;-76
2021/10/03 07:12:48;;;;;;;;;1.00;1.00;;;;;16.60;79.41;99406.28;5038620;28;45393;-76
2021/10/03 07:15:14;;;;;;;;;2.00;0.00;;;;;16.68;79.39;99417.16;5040085;28;45474;-76
2021/10/03 07:17:39;;;;;;;;;1.00;1.00;;;;;16.68;79.37;99411.00;5040131;28;45409;-75
2021/10/03 07:20:06;;;;;;;;;1.00;0.00;;;;;16.71;79.31;99421.38;5021902;28;45500;-76
2021/10/03 07:22:31;;;;;;;;;2.50;0.50;;;;;16.74;79.10;99432.56;5038667;28;45416;-76
2021/10/03 07:24:57;;;;;;;;;2.00;0.00;;;;;16.77;79.56;99434.13;5029991;28;46133;-76
2021/10/03 07:27:22;;;;;;;;;1.50;1.00;;;;;16.79;79.11;99432.19;5039456;28;45544;-76
2021/10/03 07:29:48;;;;;;;;;1.75;1.75;;;;;16.82;78.90;99429.28;5040416;28;45482;-76
2021/10/03 07:32:13;;;;;;;;;2.75;1.75;;;;;16.83;78.88;99438.94;5040068;28;45344;-76
2021/10/03 07:34:39;;;;;;;;;0.50;0.50;;;;;16.82;78.64;99444.38;5040141;28;45483;-75
2021/10/03 07:37:04;;;;;;;;;1.50;1.00;;;;;16.80;78.86;99428.56;5038829;28;45240;-76
2021/10/03 07:39:31;;;;;;;;;2.00;1.00;;;;;16.83;78.79;99431.00;5039715;28;45169;-75
2021/10/03 07:41:57;;;;;;;;;2.50;1.00;;;;;16.82;78.65;99420.47;5037043;28;45471;-76
2021/10/03 07:44:24;;;;;;;;;3.00;3.00;;;;;16.85;78.72;99423.75;5032217;28;45355;-77
2021/10/03 07:46:50;;;;;;;;;3.00;3.00;;;;;16.89;78.74;99428.81;5039866;28;45516;-77
2021/10/03 07:49:15;;;;;;;;;3.00;3.00;;;;;16.94;79.17;99448.69;5039905;28;45305;-76
2021/10/03 07:51:42;;;;;;;;;3.00;2.75;;;;;16.96;79.14;99453.88;5038241;28;45485;-77
2021/10/03 07:54:08;;;;;;;;;2.00;2.00;;;;;16.98;79.26;99458.09;5039284;28;45441;-77
2021/10/03 07:56:33;;;;;;;;;4.00;3.25;;;;;16.99;78.70;99448.31;5020577;28;45517;-77
2021/10/03 07:58:58;;;;;;;;;4.00;3.75;;;;;16.99;78.89;99454.47;5039621;28;45417;-76
2021/10/03 08:01:24;;;;;;;;;3.75;3.75;;;;;17.02;78.67;99455.19;5036653;28;45494;-76
2021/10/03 08:03:49;;;;;;;;;2.00;2.00;;;;;17.02;78.13;99461.34;5033506;28;45327;-77
2021/10/03 08:06:15;;;;;;;;;8.50;8.25;;;;;17.08;78.27;99455.56;5039614;28;45288;-77
2021/10/03 08:08:40;;;;;;;;;6.75;4.00;;;;;17.15;78.39;99463.00;5037234;28;45355;-77
2021/10/03 08:11:06;;;;;;;;;6.00;6.00;;;;;17.17;77.88;99472.56;5036827;28;45489;-77
2021/10/03 08:13:31;;;;;;;;;5.75;5.75;;;;;17.19;78.05;99481.22;5038809;28;45352;-78
2021/10/03 08:15:57;;;;;;;;;8.00;5.00;;;;;17.27;77.80;99485.06;5020566;28;45270;-78
2021/10/03 08:18:22;;;;;;;;;3.25;3.25;;;;;17.30;77.95;99485.69;5021418;28;45462;-79
2021/10/03 08:20:50;;;;;;;;;5.00;5.00;;;;;17.26;77.82;99478.91;5029964;28;45460;-79
2021/10/03 08:23:16;;;;;;;;;3.25;3.25;;;;;17.29;77.71;99488.44;5029086;28;45825;-79
2021/10/03 08:25:41;;;;;;;;;4.50;4.50;;;;;17.30;77.52;99491.00;5037115;28;45355;-79
2021/10/03 08:28:07;;;;;;;;;3.50;3.50;;;;;17.37;77.05;99501.09;5038912;28;45954;-79
2021/10/03 08:30:32;;;;;;;;;6.75;5.00;;;;;17.38;76.87;99506.31;5036980;28;45573;-79
2021/10/03 08:32:58;;;;;;;;;8.00;4.75;;;;;17.43;76.22;99505.94;5038800;28;45307;-79
2021/10/03 08:35:23;;;;;;;;;6.00;4.50;;;;;17.50;76.28;99507.09;5039096;28;45295;-79
2021/10/03 08:37:48;;;;;;;;;2.25;2.25;;;;;17.49;76.00;99496.59;5034201;28;45753;-79
2021/10/03 08:40:14;;;;;;;;;3.00;3.00;;;;;17.54;75.85;99495.25;5037729;28;45316;-79
2021/10/03 08:42:40;;;;;;;;;2.00;2.00;;;;;17.57;76.35;99501.28;5038663;28;46235;-79
2021/10/03 08:45:06;;;;;;;;;3.25;3.25;;;;;17.61;75.96;99498.22;5039081;28;45298;-79
2021/10/03 08:47:32;;;;;;;;;3.25;2.50;;;;;17.67;75.75;99512.84;5030813;28;45501;-79
2021/10/03 08:49:58;;;;;;;;;1.25;1.00;;;;;17.70;75.08;99517.91;5038514;28;45463;-79
2021/10/03 08:52:26;;;;;;;;;3.75;2.75;;;;;17.76;75.15;99543.94;5039073;28;46211;-79
2021/10/03 08:54:52;;;;;;;;;5.00;2.75;;;;;17.82;75.15;99542.59;5028682;28;45330;-79
2021/10/03 08:57:18;;;;;;;;;4.00;3.25;;;;;17.83;74.90;99554.09;5039137;28;45525;-79
2021/10/03 09:00:08;;;;;;;;;4.00;2.50;;;;;17.89;74.85;99561.53;5038504;28;45481;-79
2021/10/03 09:03:12;;;;;;;;;3.00;3.00;;;;;17.91;74.67;99558.75;5033536;28;45437;-79
2021/10/03 09:05:59;;;;;;;;;3.00;3.00;;;;;17.85;75.14;99544.97;4977013;28;45296;-79
2021/10/03 09:08:29;;;;;;;;;3.50;3.50;;;;;17.87;75.06;99555.50;4977332;28;45451;-80
2021/10/03 09:10:57;;;;;;;;;2.50;2.00;;;;;17.87;75.89;99555.50;4997384;28;46285;-79
2021/10/03 09:13:46;;;;;;;;;3.00;3.00;;;;;17.93;75.72;99565.63;5015815;28;47026;-79
2021/10/03 09:16:30;;;;;;;;;2.25;2.25;;;;;17.98;75.72;99573.19;5035332;28;45715;-79
2021/10/03 09:19:09;;;;;;;;;2.00;2.00;;;;;18.01;75.27;99578.28;5038945;28;45402;-79
2021/10/03 09:21:41;;;;;;;;;0.25;0.00;;;;;18.02;75.69;99579.13;5035986;28;45463;-79
2021/10/03 09:24:18;;;;;;;;;1.25;1.25;;;;;18.07;75.35;99588.41;5038276;28;45344;-79
2021/10/03 09:27:03;;;;;;;;;2.00;1.50;;;;;18.07;75.38;99590.22;5037967;28;45911;-79
2021/10/03 09:29:32;;;;;;;;;1.25;1.25;;;;;18.10;75.02;99597.91;5024150;28;45439;-79
2021/10/03 09:32:15;;;;;;;;;1.00;1.00;;;;;18.05;75.45;99585.00;5040985;28;45246;-80
2021/10/03 09:34:49;;;;;;;;;3.00;3.00;;;;;18.06;75.67;99607.13;5036302;28;45437;-79
2021/10/03 09:37:26;;;;;;;;;2.75;2.75;;;;;18.03;75.59;99599.41;5023222;28;45333;-79
2021/10/03 09:40:08;;;;;;;;;11.00;7.50;;;;;18.04;75.26;99617.06;5039930;28;45544;-79
2021/10/03 09:42:35;;;;;;;;;3.50;3.50;;;;;17.98;75.04;99611.28;5041510;28;45361;-83
2021/10/03 09:45:15;;;;;;;;;4.50;4.50;;;;;17.93;76.14;99608.16;5040357;28;45644;-81
2021/10/03 09:47:44;;;;;;;;;5.00;4.00;;;;;17.93;75.52;99644.50;5028547;28;45691;-81
2021/10/03 09:50:12;;;;;;;;;3.00;3.00;;;;;17.91;76.09;99657.94;5038425;28;45186;-82
2021/10/03 09:52:39;;;;;;;;;2.75;2.75;;;;;17.84;76.33;99726.69;5020829;28;47114;-82
2021/10/03 09:55:06;;;;;;;;;2.25;2.25;;;;;17.69;74.55;99750.03;5040650;28;45428;-82
2021/10/03 09:57:31;;;;;;;;;1.00;1.00;;;;;17.40;72.39;99771.75;5040121;28;45596;-82
2021/10/03 09:59:57;;;;;;;;;0.00;0.00;;;;;16.92;71.86;99776.19;5021968;28;45367;-81
2021/10/03 10:02:24;;;;;;;;;0.00;0.00;;;;;16.50;71.83;99791.59;5050921;28;45417;-81
2021/10/03 10:04:50;;;;;;;;;0.00;0.00;;;;;16.11;71.81;99812.94;5022834;28;46124;-81
2021/10/03 10:07:18;;;;;;;;;0.00;0.00;;;;;15.74;71.05;99814.56;5038256;28;45434;-81
2021/10/03 10:09:47;;;;;;;;;0.00;0.00;;;;;15.46;72.80;99819.13;5036439;28;45752;-81
2021/10/03 10:12:20;;;;;;;;;0.00;0.00;;;;;15.23;74.29;99852.47;5024972;28;46910;-81
2021/10/03 10:14:47;;;;;;;;;0.25;0.25;;;;;15.06;74.02;99873.78;5034825;28;45532;-81
2021/10/03 10:17:32;;;;;;;;;1.00;0.00;;;;;14.98;74.97;99910.50;5039970;28;45596;-81
2021/10/03 10:20:16;;;;;;;;;1.00;0.00;;;;;14.89;74.60;99885.47;5038981;28;45344;-81
2021/10/03 10:22:56;;;;;;;;;0.00;0.00;;;;;14.77;75.26;99924.13;5039638;28;45333;-81
2021/10/03 10:25:37;;;;;;;;;0.25;0.00;;;;;14.83;74.92;99926.41;5038901;28;46666;-81
2021/10/03 10:28:06;;;;;;;;;0.25;0.25;;;;;14.79;75.68;99930.16;5039809;28;45524;-81
2021/10/03 10:30:33;;;;;;;;;0.00;0.00;;;;;14.89;75.10;99953.44;5040056;28;45454;-81
2021/10/03 10:33:01;;;;;;;;;0.25;0.25;;;;;14.94;74.63;99956.63;5040336;28;45359;-82
2021/10/03 10:35:29;;;;;;;;;0.00;0.00;;;;;14.87;74.20;99955.31;5039900;28;45574;-81
2021/10/03 10:37:59;;;;;;;;;0.00;0.00;;;;;14.89;74.66;99978.06;5039998;28;45324;-81
2021/10/03 10:40:25;;;;;;;;;0.00;0.00;;;;;14.89;74.23;99993.13;5037308;28;45518;-81
2021/10/03 10:43:20;;;;;;;;;0.00;0.00;;;;;14.84;73.40;99998.69;5039535;28;45483;-81
2021/10/03 10:45:46;;;;;;;;;0.00;0.00;;;;;14.70;73.42;99999.53;5018061;28;48165;-82
2021/10/03 10:48:12;;;;;;;;;0.00;0.00;;;;;14.73;74.88;100039.88;5020037;28;45875;-82
2021/10/03 10:51:00;;;;;;;;;0.25;0.00;;;;;14.87;74.57;100055.84;5036503;28;46984;-83
2021/10/03 10:53:35;;;;;;;;;0.75;0.75;;;;;14.83;72.86;100056.03;5029948;28;45586;-82
2021/10/03 10:56:06;;;;;;;;;0.50;0.00;;;;;14.83;73.60;100087.75;5038432;28;46143;-82
2021/10/03 10:58:35;;;;;;;;;0.00;0.00;;;;;14.86;74.30;100100.00;5037233;28;45539;-83
2021/10/03 11:01:13;;;;;;;;;0.00;0.00;;;;;14.89;74.00;100105.06;5021365;28;45308;-82
2021/10/03 11:03:41;;;;;;;;;0.00;0.00;;;;;14.98;73.84;100094.88;5027710;28;45851;-82
2021/10/03 11:06:34;;;;;;;;;1.00;1.00;;;;;14.96;74.00;100079.09;5030973;28;46397;-82
2021/10/03 11:09:02;;;;;;;;;0.00;0.00;;;;;15.00;74.01;100077.97;5020567;28;45530;-82
2021/10/03 11:11:30;;;;;;;;;0.00;0.00;;;;;15.06;72.57;100074.91;5037226;28;45632;-83
2021/10/03 11:13:58;;;;;;;;;1.00;0.00;;;;;15.14;73.00;100090.31;5031501;28;46123;-82
2021/10/03 11:16:35;;;;;;;;;0.00;0.00;;;;;15.18;71.93;100094.50;5038088;28;45462;-83
2021/10/03 11:19:05;;;;;;;;;1.00;0.00;;;;;15.26;72.00;100112.50;5021546;28;45673;-82
2021/10/03 11:21:35;;;;;;;;;0.00;0.00;;;;;15.36;71.55;100104.84;5037947;28;45526;-82
2021/10/03 11:24:04;;;;;;;;;2.25;0.00;;;;;15.40;71.11;100110.81;5043790;28;45734;-82
2021/10/03 11:26:46;;;;;;;;;0.00;0.00;;;;;15.43;70.42;100131.81;5021981;28;46375;-82
2021/10/03 11:29:12;;;;;;;;;0.00;0.00;;;;;15.44;69.25;100164.41;5021993;28;45818;-82
2021/10/03 11:31:50;;;;;;;;;1.00;1.00;;;;;15.40;70.83;100172.56;5039504;28;45399;-82
2021/10/03 11:34:28;;;;;;;;;1.00;0.00;;;;;15.56;72.07;100176.00;5043757;28;45177;-82